sensor_id;sensor_type;location;lat;lon;timestamp;temperature;humidity
70708;SHT30;58277;47.316;18.908;2023-03-21T00:01:36;10.21;73.46
70708;SHT30;58277;47.316;18.908;2023-03-21T00:03:59;10.31;73.23
70708;SHT30;58277;47.316;18.908;2023-03-21T00:06:22;10.37;72.97
70708;SHT30;58277;47.316;18.908;2023-03-21T00:08:45;10.32;73.21
70708;SHT30;58277;47.316;18.908;2023-03-21T00:11:09;10.31;73.30
70708;SHT30;58277;47.316;18.908;2023-03-21T00:13:34;10.30;73.41
70708;SHT30;58277;47.316;18.908;2023-03-21T00:16:11;10.25;73.50
70708;SHT30;58277;47.316;18.908;2023-03-21T00:18:49;10.31;73.36
70708;SHT30;58277;47.316;18.908;2023-03-21T00:21:16;10.37;73.17
70708;SHT30;58277;47.316;18.908;2023-03-21T00:24:00;10.30;73.37
70708;SHT30;58277;47.316;18.908;2023-03-21T00:26:23;10.24;73.47
70708;SHT30;58277;47.316;18.908;2023-03-21T00:28:46;10.21;73.60
70708;SHT30;58277;47.316;18.908;2023-03-21T00:31:09;10.20;73.69
70708;SHT30;58277;47.316;18.908;2023-03-21T00:33:33;10.17;73.70
70708;SHT30;58277;47.316;18.908;2023-03-21T00:35:58;10.17;73.67
70708;SHT30;58277;47.316;18.908;2023-03-21T00:38:28;10.15;73.75
70708;SHT30;58277;47.316;18.908;2023-03-21T00:40:51;10.25;73.31
70708;SHT30;58277;47.316;18.908;2023-03-21T00:43:15;10.28;73.39
70708;SHT30;58277;47.316;18.908;2023-03-21T00:45:39;10.20;73.66
70708;SHT30;58277;47.316;18.908;2023-03-21T00:48:02;10.14;73.82
70708;SHT30;58277;47.316;18.908;2023-03-21T00:50:26;10.04;74.07
70708;SHT30;58277;47.316;18.908;2023-03-21T00:52:49;10.05;73.90
70708;SHT30;58277;47.316;18.908;2023-03-21T00:55:14;10.00;74.09
70708;SHT30;58277;47.316;18.908;2023-03-21T00:57:37;9.90;74.34
70708;SHT30;58277;47.316;18.908;2023-03-21T01:00:01;9.87;74.38
70708;SHT30;58277;47.316;18.908;2023-03-21T01:02:26;9.83;74.58
70708;SHT30;58277;47.316;18.908;2023-03-21T01:04:52;9.82;74.62
70708;SHT30;58277;47.316;18.908;2023-03-21T01:07:15;9.75;74.98
70708;SHT30;58277;47.316;18.908;2023-03-21T01:09:39;9.69;75.17
70708;SHT30;58277;47.316;18.908;2023-03-21T01:12:02;9.59;75.47
70708;SHT30;58277;47.316;18.908;2023-03-21T01:14:25;9.65;75.14
70708;SHT30;58277;47.316;18.908;2023-03-21T01:16:50;9.69;75.08
70708;SHT30;58277;47.316;18.908;2023-03-21T01:19:15;9.63;75.32
70708;SHT30;58277;47.316;18.908;2023-03-21T01:21:47;9.63;75.09
70708;SHT30;58277;47.316;18.908;2023-03-21T01:24:10;9.56;75.51
70708;SHT30;58277;47.316;18.908;2023-03-21T01:26:34;9.48;75.90
70708;SHT30;58277;47.316;18.908;2023-03-21T01:28:59;9.48;75.91
70708;SHT30;58277;47.316;18.908;2023-03-21T01:31:22;9.50;75.79
70708;SHT30;58277;47.316;18.908;2023-03-21T01:33:45;9.50;75.63
70708;SHT30;58277;47.316;18.908;2023-03-21T01:36:15;9.48;75.79
70708;SHT30;58277;47.316;18.908;2023-03-21T01:38:40;9.39;76.30
70708;SHT30;58277;47.316;18.908;2023-03-21T01:41:04;9.46;76.18
70708;SHT30;58277;47.316;18.908;2023-03-21T01:43:40;9.49;76.09
70708;SHT30;58277;47.316;18.908;2023-03-21T01:48:54;9.48;76.22
70708;SHT30;58277;47.316;18.908;2023-03-21T01:51:18;9.45;76.21
70708;SHT30;58277;47.316;18.908;2023-03-21T01:53:51;9.45;76.24
70708;SHT30;58277;47.316;18.908;2023-03-21T01:56:27;9.31;76.79
70708;SHT30;58277;47.316;18.908;2023-03-21T01:59:04;9.29;76.94
70708;SHT30;58277;47.316;18.908;2023-03-21T02:02:00;9.45;76.36
70708;SHT30;58277;47.316;18.908;2023-03-21T02:04:35;9.39;76.56
70708;SHT30;58277;47.316;18.908;2023-03-21T02:07:14;9.25;77.00
70708;SHT30;58277;47.316;18.908;2023-03-21T02:09:48;9.15;77.27
70708;SHT30;58277;47.316;18.908;2023-03-21T02:12:15;9.12;77.55
70708;SHT30;58277;47.316;18.908;2023-03-21T02:14:41;9.19;77.22
70708;SHT30;58277;47.316;18.908;2023-03-21T02:28:26;9.25;77.52
70708;SHT30;58277;47.316;18.908;2023-03-21T02:37:06;9.35;77.57
70708;SHT30;58277;47.316;18.908;2023-03-21T02:39:13;9.38;77.71
70708;SHT30;58277;47.316;18.908;2023-03-21T02:47:11;9.52;77.42
70708;SHT30;58277;47.316;18.908;2023-03-21T02:52:05;9.70;76.87
70708;SHT30;58277;47.316;18.908;2023-03-21T02:54:44;9.76;76.71
70708;SHT30;58277;47.316;18.908;2023-03-21T02:57:16;9.86;76.28
70708;SHT30;58277;47.316;18.908;2023-03-21T02:59:41;9.95;75.95
70708;SHT30;58277;47.316;18.908;2023-03-21T03:02:23;10.05;75.48
70708;SHT30;58277;47.316;18.908;2023-03-21T03:04:46;10.08;75.36
70708;SHT30;58277;47.316;18.908;2023-03-21T03:07:34;10.14;75.10
70708;SHT30;58277;47.316;18.908;2023-03-21T03:10:31;10.14;75.22
70708;SHT30;58277;47.316;18.908;2023-03-21T03:13:14;10.10;75.32
70708;SHT30;58277;47.316;18.908;2023-03-21T03:21:16;10.13;75.12
70708;SHT30;58277;47.316;18.908;2023-03-21T03:23:50;10.22;74.88
70708;SHT30;58277;47.316;18.908;2023-03-21T03:27:01;10.25;74.70
70708;SHT30;58277;47.316;18.908;2023-03-21T03:29:07;10.28;74.56
70708;SHT30;58277;47.316;18.908;2023-03-21T03:31:34;10.24;74.76
70708;SHT30;58277;47.316;18.908;2023-03-21T03:34:04;10.17;74.96
70708;SHT30;58277;47.316;18.908;2023-03-21T03:36:35;10.18;74.96
70708;SHT30;58277;47.316;18.908;2023-03-21T03:39:08;10.20;74.88
70708;SHT30;58277;47.316;18.908;2023-03-21T03:41:42;10.11;75.10
70708;SHT30;58277;47.316;18.908;2023-03-21T03:44:30;10.04;75.39
70708;SHT30;58277;47.316;18.908;2023-03-21T03:50:19;10.08;75.14
70708;SHT30;58277;47.316;18.908;2023-03-21T03:52:48;10.03;75.31
70708;SHT30;58277;47.316;18.908;2023-03-21T03:55:23;10.03;75.38
70708;SHT30;58277;47.316;18.908;2023-03-21T03:57:53;9.98;75.63
70708;SHT30;58277;47.316;18.908;2023-03-21T04:00:17;9.91;75.96
70708;SHT30;58277;47.316;18.908;2023-03-21T04:02:43;9.73;76.73
70708;SHT30;58277;47.316;18.908;2023-03-21T04:05:12;9.69;76.80
70708;SHT30;58277;47.316;18.908;2023-03-21T04:07:35;9.62;77.07
70708;SHT30;58277;47.316;18.908;2023-03-21T04:09:58;9.69;76.78
70708;SHT30;58277;47.316;18.908;2023-03-21T04:12:22;9.55;77.39
70708;SHT30;58277;47.316;18.908;2023-03-21T04:15:11;9.50;77.27
70708;SHT30;58277;47.316;18.908;2023-03-21T04:17:39;9.34;78.01
70708;SHT30;58277;47.316;18.908;2023-03-21T04:20:04;9.34;77.92
70708;SHT30;58277;47.316;18.908;2023-03-21T04:22:45;9.28;78.04
70708;SHT30;58277;47.316;18.908;2023-03-21T04:25:09;9.39;77.87
70708;SHT30;58277;47.316;18.908;2023-03-21T04:27:32;9.40;77.74
70708;SHT30;58277;47.316;18.908;2023-03-21T04:30:18;9.46;77.75
70708;SHT30;58277;47.316;18.908;2023-03-21T04:32:48;9.49;77.59
70708;SHT30;58277;47.316;18.908;2023-03-21T04:35:15;9.59;77.39
70708;SHT30;58277;47.316;18.908;2023-03-21T04:37:38;9.57;77.39
70708;SHT30;58277;47.316;18.908;2023-03-21T04:40:07;9.57;77.33
70708;SHT30;58277;47.316;18.908;2023-03-21T04:42:30;9.62;77.18
70708;SHT30;58277;47.316;18.908;2023-03-21T04:44:52;9.70;76.86
70708;SHT30;58277;47.316;18.908;2023-03-21T04:47:15;9.77;76.58
70708;SHT30;58277;47.316;18.908;2023-03-21T04:49:42;9.84;76.27
70708;SHT30;58277;47.316;18.908;2023-03-21T04:52:06;9.86;76.28
70708;SHT30;58277;47.316;18.908;2023-03-21T04:54:29;9.94;75.93
70708;SHT30;58277;47.316;18.908;2023-03-21T04:56:53;9.91;75.96
70708;SHT30;58277;47.316;18.908;2023-03-21T04:59:20;9.86;76.10
70708;SHT30;58277;47.316;18.908;2023-03-21T05:01:44;9.83;76.24
70708;SHT30;58277;47.316;18.908;2023-03-21T05:04:07;9.86;76.20
70708;SHT30;58277;47.316;18.908;2023-03-21T05:06:30;9.94;76.03
70708;SHT30;58277;47.316;18.908;2023-03-21T05:08:55;9.91;76.05
70708;SHT30;58277;47.316;18.908;2023-03-21T05:11:29;9.98;75.79
70708;SHT30;58277;47.316;18.908;2023-03-21T05:13:53;10.08;75.45
70708;SHT30;58277;47.316;18.908;2023-03-21T05:16:15;10.03;75.66
70708;SHT30;58277;47.316;18.908;2023-03-21T05:18:39;10.00;75.86
70708;SHT30;58277;47.316;18.908;2023-03-21T05:21:08;10.01;75.77
70708;SHT30;58277;47.316;18.908;2023-03-21T05:23:36;10.08;75.56
70708;SHT30;58277;47.316;18.908;2023-03-21T05:26:09;10.88;73.41
70708;SHT30;58277;47.316;18.908;2023-03-21T05:28:49;11.76;70.11
70708;SHT30;58277;47.316;18.908;2023-03-21T05:31:14;12.00;68.60
70708;SHT30;58277;47.316;18.908;2023-03-21T05:33:40;12.58;67.15
70708;SHT30;58277;47.316;18.908;2023-03-21T05:36:03;12.34;67.17
70708;SHT30;58277;47.316;18.908;2023-03-21T05:38:27;12.12;67.99
70708;SHT30;58277;47.316;18.908;2023-03-21T05:40:50;12.27;67.89
70708;SHT30;58277;47.316;18.908;2023-03-21T05:43:13;12.04;68.31
70708;SHT30;58277;47.316;18.908;2023-03-21T05:45:36;12.69;66.48
70708;SHT30;58277;47.316;18.908;2023-03-21T05:48:00;13.74;63.44
70708;SHT30;58277;47.316;18.908;2023-03-21T05:50:27;14.81;59.84
70708;SHT30;58277;47.316;18.908;2023-03-21T05:53:11;15.08;58.56
70708;SHT30;58277;47.316;18.908;2023-03-21T05:55:35;15.47;57.57
70708;SHT30;58277;47.316;18.908;2023-03-21T05:58:01;16.08;56.21
70708;SHT30;58277;47.316;18.908;2023-03-21T06:00:25;16.79;53.63
70708;SHT30;58277;47.316;18.908;2023-03-21T06:03:09;16.76;53.86
70708;SHT30;58277;47.316;18.908;2023-03-21T06:05:46;16.25;55.03
70708;SHT30;58277;47.316;18.908;2023-03-21T06:08:15;15.35;57.72
70708;SHT30;58277;47.316;18.908;2023-03-21T06:10:40;14.98;58.57
70708;SHT30;58277;47.316;18.908;2023-03-21T06:13:03;14.39;60.25
70708;SHT30;58277;47.316;18.908;2023-03-21T06:15:29;14.06;61.51
70708;SHT30;58277;47.316;18.908;2023-03-21T06:18:01;14.41;60.87
70708;SHT30;58277;47.316;18.908;2023-03-21T06:20:24;14.43;61.13
70708;SHT30;58277;47.316;18.908;2023-03-21T06:22:50;14.06;61.94
70708;SHT30;58277;47.316;18.908;2023-03-21T06:25:13;13.94;62.63
70708;SHT30;58277;47.316;18.908;2023-03-21T06:27:36;13.81;62.99
70708;SHT30;58277;47.316;18.908;2023-03-21T06:30:02;13.73;63.34
70708;SHT30;58277;47.316;18.908;2023-03-21T06:32:31;14.20;61.94
70708;SHT30;58277;47.316;18.908;2023-03-21T06:35:03;14.73;60.01
70708;SHT30;58277;47.316;18.908;2023-03-21T06:37:29;15.59;58.48
70708;SHT30;58277;47.316;18.908;2023-03-21T06:39:52;16.48;54.69
70708;SHT30;58277;47.316;18.908;2023-03-21T06:42:18;16.97;53.76
70708;SHT30;58277;47.316;18.908;2023-03-21T06:44:41;16.52;54.44
70708;SHT30;58277;47.316;18.908;2023-03-21T06:47:08;16.63;54.68
70708;SHT30;58277;47.316;18.908;2023-03-21T06:49:31;17.82;51.75
70708;SHT30;58277;47.316;18.908;2023-03-21T06:52:01;18.48;49.87
70708;SHT30;58277;47.316;18.908;2023-03-21T06:54:25;17.73;51.04
70708;SHT30;58277;47.316;18.908;2023-03-21T06:56:53;17.28;52.10
70708;SHT30;58277;47.316;18.908;2023-03-21T06:59:21;17.38;52.13
70708;SHT30;58277;47.316;18.908;2023-03-21T07:01:52;17.89;50.75
70708;SHT30;58277;47.316;18.908;2023-03-21T07:04:16;18.43;48.94
70708;SHT30;58277;47.316;18.908;2023-03-21T07:06:40;17.72;50.27
70708;SHT30;58277;47.316;18.908;2023-03-21T07:09:05;17.10;52.34
70708;SHT30;58277;47.316;18.908;2023-03-21T07:11:28;17.30;52.07
70708;SHT30;58277;47.316;18.908;2023-03-21T07:13:51;17.00;52.68
70708;SHT30;58277;47.316;18.908;2023-03-21T07:16:17;16.42;54.41
70708;SHT30;58277;47.316;18.908;2023-03-21T07:18:40;15.93;55.44
70708;SHT30;58277;47.316;18.908;2023-03-21T07:21:04;16.29;55.19
70708;SHT30;58277;47.316;18.908;2023-03-21T07:23:28;16.81;54.22
70708;SHT30;58277;47.316;18.908;2023-03-21T07:25:52;17.17;53.09
70708;SHT30;58277;47.316;18.908;2023-03-21T07:28:15;17.28;52.71
70708;SHT30;58277;47.316;18.908;2023-03-21T07:30:39;17.53;51.82
70708;SHT30;58277;47.316;18.908;2023-03-21T07:33:02;16.83;53.86
70708;SHT30;58277;47.316;18.908;2023-03-21T07:35:25;17.21;53.21
70708;SHT30;58277;47.316;18.908;2023-03-21T07:37:49;17.65;51.87
70708;SHT30;58277;47.316;18.908;2023-03-21T07:40:13;17.99;50.86
70708;SHT30;58277;47.316;18.908;2023-03-21T07:42:37;18.79;49.38
70708;SHT30;58277;47.316;18.908;2023-03-21T07:45:00;19.54;47.34
70708;SHT30;58277;47.316;18.908;2023-03-21T07:47:27;20.12;45.92
70708;SHT30;58277;47.316;18.908;2023-03-21T07:49:51;20.67;44.48
70708;SHT30;58277;47.316;18.908;2023-03-21T07:52:17;21.33;42.91
70708;SHT30;58277;47.316;18.908;2023-03-21T07:54:43;21.83;41.85
70708;SHT30;58277;47.316;18.908;2023-03-21T07:57:06;22.48;39.88
70708;SHT30;58277;47.316;18.908;2023-03-21T07:59:29;23.49;38.95
70708;SHT30;58277;47.316;18.908;2023-03-21T08:01:54;24.04;37.67
70708;SHT30;58277;47.316;18.908;2023-03-21T08:04:39;23.94;36.66
70708;SHT30;58277;47.316;18.908;2023-03-21T08:07:13;22.89;39.00
70708;SHT30;58277;47.316;18.908;2023-03-21T08:09:38;22.25;39.85
70708;SHT30;58277;47.316;18.908;2023-03-21T08:12:28;22.52;39.27
70708;SHT30;58277;47.316;18.908;2023-03-21T08:14:53;22.66;39.31
70708;SHT30;58277;47.316;18.908;2023-03-21T08:17:19;22.80;39.60
70708;SHT30;58277;47.316;18.908;2023-03-21T08:19:46;22.76;39.56
70708;SHT30;58277;47.316;18.908;2023-03-21T08:22:09;21.98;40.38
70708;SHT30;58277;47.316;18.908;2023-03-21T08:24:32;20.84;42.27
70708;SHT30;58277;47.316;18.908;2023-03-21T08:26:55;20.10;44.50
70708;SHT30;58277;47.316;18.908;2023-03-21T08:29:18;19.67;44.99
70708;SHT30;58277;47.316;18.908;2023-03-21T08:31:43;19.19;46.06
70708;SHT30;58277;47.316;18.908;2023-03-21T08:34:06;19.03;47.44
70708;SHT30;58277;47.316;18.908;2023-03-21T08:36:29;18.61;46.97
70708;SHT30;58277;47.316;18.908;2023-03-21T08:38:53;18.28;48.62
70708;SHT30;58277;47.316;18.908;2023-03-21T08:41:26;18.07;49.07
70708;SHT30;58277;47.316;18.908;2023-03-21T08:43:49;17.53;50.16
70708;SHT30;58277;47.316;18.908;2023-03-21T08:46:12;17.65;51.00
70708;SHT30;58277;47.316;18.908;2023-03-21T08:48:37;17.87;49.11
70708;SHT30;58277;47.316;18.908;2023-03-21T08:51:01;18.06;48.47
70708;SHT30;58277;47.316;18.908;2023-03-21T08:53:24;18.34;48.81
70708;SHT30;58277;47.316;18.908;2023-03-21T08:55:48;18.54;45.97
70708;SHT30;58277;47.316;18.908;2023-03-21T08:58:11;18.64;46.13
70708;SHT30;58277;47.316;18.908;2023-03-21T09:00:34;18.61;46.26
70708;SHT30;58277;47.316;18.908;2023-03-21T09:02:57;18.76;45.85
70708;SHT30;58277;47.316;18.908;2023-03-21T09:05:21;18.48;46.64
70708;SHT30;58277;47.316;18.908;2023-03-21T09:07:44;18.30;46.52
70708;SHT30;58277;47.316;18.908;2023-03-21T09:10:15;18.03;47.48
70708;SHT30;58277;47.316;18.908;2023-03-21T09:12:45;18.07;47.48
70708;SHT30;58277;47.316;18.908;2023-03-21T09:15:09;17.91;48.46
70708;SHT30;58277;47.316;18.908;2023-03-21T09:17:40;17.51;49.48
70708;SHT30;58277;47.316;18.908;2023-03-21T09:20:05;17.36;49.61
70708;SHT30;58277;47.316;18.908;2023-03-21T09:22:33;17.17;49.75
70708;SHT30;58277;47.316;18.908;2023-03-21T09:24:57;17.23;50.75
70708;SHT30;58277;47.316;18.908;2023-03-21T09:27:20;17.24;50.72
70708;SHT30;58277;47.316;18.908;2023-03-21T09:29:44;17.39;50.19
70708;SHT30;58277;47.316;18.908;2023-03-21T09:32:08;17.46;50.26
70708;SHT30;58277;47.316;18.908;2023-03-21T09:34:32;17.48;51.21
70708;SHT30;58277;47.316;18.908;2023-03-21T09:36:54;17.59;51.51
70708;SHT30;58277;47.316;18.908;2023-03-21T09:39:19;17.61;49.82
70708;SHT30;58277;47.316;18.908;2023-03-21T09:45:04;17.28;50.23
70708;SHT30;58277;47.316;18.908;2023-03-21T09:47:31;17.55;51.02
70708;SHT30;58277;47.316;18.908;2023-03-21T09:50:15;18.16;49.58
70708;SHT30;58277;47.316;18.908;2023-03-21T09:52:46;18.48;49.17
70708;SHT30;58277;47.316;18.908;2023-03-21T09:55:21;18.71;48.10
70708;SHT30;58277;47.316;18.908;2023-03-21T09:57:52;18.65;46.45
70708;SHT30;58277;47.316;18.908;2023-03-21T10:00:49;18.54;47.44
70708;SHT30;58277;47.316;18.908;2023-03-21T10:03:29;18.51;46.59
70708;SHT30;58277;47.316;18.908;2023-03-21T10:06:13;18.21;45.34
70708;SHT30;58277;47.316;18.908;2023-03-21T10:08:39;18.14;46.42
70708;SHT30;58277;47.316;18.908;2023-03-21T10:11:26;17.93;47.53
70708;SHT30;58277;47.316;18.908;2023-03-21T10:13:57;17.73;47.99
70708;SHT30;58277;47.316;18.908;2023-03-21T10:16:30;17.78;49.03
70708;SHT30;58277;47.316;18.908;2023-03-21T10:18:55;17.76;49.09
70708;SHT30;58277;47.316;18.908;2023-03-21T10:21:22;17.65;49.66
70708;SHT30;58277;47.316;18.908;2023-03-21T10:24:05;17.82;49.01
70708;SHT30;58277;47.316;18.908;2023-03-21T10:26:28;17.96;48.97
70708;SHT30;58277;47.316;18.908;2023-03-21T10:28:58;17.83;48.36
70708;SHT30;58277;47.316;18.908;2023-03-21T10:31:23;17.90;45.98
70708;SHT30;58277;47.316;18.908;2023-03-21T10:33:51;17.96;45.28
70708;SHT30;58277;47.316;18.908;2023-03-21T10:36:19;17.99;45.07
70708;SHT30;58277;47.316;18.908;2023-03-21T10:38:48;17.90;44.77
70708;SHT30;58277;47.316;18.908;2023-03-21T10:41:12;18.03;45.19
70708;SHT30;58277;47.316;18.908;2023-03-21T10:43:37;18.13;44.21
70708;SHT30;58277;47.316;18.908;2023-03-21T10:46:10;18.23;43.73
70708;SHT30;58277;47.316;18.908;2023-03-21T10:48:39;18.20;43.36
70708;SHT30;58277;47.316;18.908;2023-03-21T10:51:06;18.16;43.15
70708;SHT30;58277;47.316;18.908;2023-03-21T10:53:37;18.16;43.56
70708;SHT30;58277;47.316;18.908;2023-03-21T10:56:02;18.27;43.60
70708;SHT30;58277;47.316;18.908;2023-03-21T10:58:30;18.26;44.51
70708;SHT30;58277;47.316;18.908;2023-03-21T11:01:00;18.21;44.63
70708;SHT30;58277;47.316;18.908;2023-03-21T11:03:35;18.06;44.81
70708;SHT30;58277;47.316;18.908;2023-03-21T11:06:05;18.00;45.66
70708;SHT30;58277;47.316;18.908;2023-03-21T11:08:31;18.13;46.12
70708;SHT30;58277;47.316;18.908;2023-03-21T11:11:08;18.18;44.79
70708;SHT30;58277;47.316;18.908;2023-03-21T11:14:03;18.10;44.68
70708;SHT30;58277;47.316;18.908;2023-03-21T11:16:38;18.00;44.60
70708;SHT30;58277;47.316;18.908;2023-03-21T11:19:12;17.89;44.75
70708;SHT30;58277;47.316;18.908;2023-03-21T11:21:36;17.73;47.79
70708;SHT30;58277;47.316;18.908;2023-03-21T11:24:01;17.53;47.54
70708;SHT30;58277;47.316;18.908;2023-03-21T11:26:29;17.46;48.16
70708;SHT30;58277;47.316;18.908;2023-03-21T11:28:54;17.87;48.78
70708;SHT30;58277;47.316;18.908;2023-03-21T11:31:17;18.23;46.20
70708;SHT30;58277;47.316;18.908;2023-03-21T11:33:55;18.30;44.60
70708;SHT30;58277;47.316;18.908;2023-03-21T11:36:26;18.04;46.04
70708;SHT30;58277;47.316;18.908;2023-03-21T11:38:59;17.91;44.38
70708;SHT30;58277;47.316;18.908;2023-03-21T11:41:33;17.73;44.46
70708;SHT30;58277;47.316;18.908;2023-03-21T11:43:57;17.71;44.69
70708;SHT30;58277;47.316;18.908;2023-03-21T11:46:29;17.80;44.38
70708;SHT30;58277;47.316;18.908;2023-03-21T11:48:54;18.01;44.81
70708;SHT30;58277;47.316;18.908;2023-03-21T11:56:48;18.55;44.19
70708;SHT30;58277;47.316;18.908;2023-03-21T12:02:21;18.40;43.97
70708;SHT30;58277;47.316;18.908;2023-03-21T12:05:02;17.96;43.74
70708;SHT30;58277;47.316;18.908;2023-03-21T12:27:41;18.91;39.91
70708;SHT30;58277;47.316;18.908;2023-03-21T12:43:39;19.37;40.39
70708;SHT30;58277;47.316;18.908;2023-03-21T12:48:51;19.16;41.32
70708;SHT30;58277;47.316;18.908;2023-03-21T12:51:29;18.88;42.57
70708;SHT30;58277;47.316;18.908;2023-03-21T12:54:20;18.73;42.66
70708;SHT30;58277;47.316;18.908;2023-03-21T12:56:49;18.71;42.57
70708;SHT30;58277;47.316;18.908;2023-03-21T13:07:28;18.86;42.09
70708;SHT30;58277;47.316;18.908;2023-03-21T13:09:52;19.26;41.10
70708;SHT30;58277;47.316;18.908;2023-03-21T13:12:47;19.53;39.95
70708;SHT30;58277;47.316;18.908;2023-03-21T13:18:03;19.10;40.74
70708;SHT30;58277;47.316;18.908;2023-03-21T13:20:51;18.86;40.92
70708;SHT30;58277;47.316;18.908;2023-03-21T13:23:17;18.89;40.67
70708;SHT30;58277;47.316;18.908;2023-03-21T13:25:45;18.93;41.09
70708;SHT30;58277;47.316;18.908;2023-03-21T13:28:27;18.72;40.37
70708;SHT30;58277;47.316;18.908;2023-03-21T13:30:50;18.77;39.42
70708;SHT30;58277;47.316;18.908;2023-03-21T13:33:19;18.69;39.45
70708;SHT30;58277;47.316;18.908;2023-03-21T13:35:44;18.72;39.68
70708;SHT30;58277;47.316;18.908;2023-03-21T13:38:27;18.79;39.73
70708;SHT30;58277;47.316;18.908;2023-03-21T13:41:16;18.82;40.34
70708;SHT30;58277;47.316;18.908;2023-03-21T13:56:58;18.81;39.04
70708;SHT30;58277;47.316;18.908;2023-03-21T14:02:33;19.09;39.68
70708;SHT30;58277;47.316;18.908;2023-03-21T14:05:17;18.93;38.87
70708;SHT30;58277;47.316;18.908;2023-03-21T14:07:45;19.02;40.37
70708;SHT30;58277;47.316;18.908;2023-03-21T14:10:50;18.95;41.55
70708;SHT30;58277;47.316;18.908;2023-03-21T14:13:19;18.91;40.71
70708;SHT30;58277;47.316;18.908;2023-03-21T14:15:47;18.68;40.23
70708;SHT30;58277;47.316;18.908;2023-03-21T14:18:23;18.31;41.98
70708;SHT30;58277;47.316;18.908;2023-03-21T14:21:15;18.27;41.28
70708;SHT30;58277;47.316;18.908;2023-03-21T14:23:45;18.24;40.71
70708;SHT30;58277;47.316;18.908;2023-03-21T14:26:10;18.24;42.26
70708;SHT30;58277;47.316;18.908;2023-03-21T14:28:33;18.16;41.60
70708;SHT30;58277;47.316;18.908;2023-03-21T14:30:59;18.24;41.67
70708;SHT30;58277;47.316;18.908;2023-03-21T14:35:56;18.01;42.42
70708;SHT30;58277;47.316;18.908;2023-03-21T14:38:25;17.73;42.18
70708;SHT30;58277;47.316;18.908;2023-03-21T14:40:52;17.66;42.61
70708;SHT30;58277;47.316;18.908;2023-03-21T14:43:15;17.63;42.83
70708;SHT30;58277;47.316;18.908;2023-03-21T14:45:39;17.55;42.52
70708;SHT30;58277;47.316;18.908;2023-03-21T14:48:06;17.56;43.21
70708;SHT30;58277;47.316;18.908;2023-03-21T14:50:35;17.55;43.37
70708;SHT30;58277;47.316;18.908;2023-03-21T14:53:00;17.58;42.33
70708;SHT30;58277;47.316;18.908;2023-03-21T14:55:23;17.61;41.90
70708;SHT30;58277;47.316;18.908;2023-03-21T14:57:50;17.51;41.86
70708;SHT30;58277;47.316;18.908;2023-03-21T15:00:27;17.46;42.24
70708;SHT30;58277;47.316;18.908;2023-03-21T15:02:51;17.34;42.83
70708;SHT30;58277;47.316;18.908;2023-03-21T15:05:28;17.36;42.84
70708;SHT30;58277;47.316;18.908;2023-03-21T15:08:37;17.41;43.33
70708;SHT30;58277;47.316;18.908;2023-03-21T15:10:40;17.31;43.77
70708;SHT30;58277;47.316;18.908;2023-03-21T15:13:15;17.21;43.58
70708;SHT30;58277;47.316;18.908;2023-03-21T15:15:40;17.15;44.02
70708;SHT30;58277;47.316;18.908;2023-03-21T15:18:05;17.14;43.89
70708;SHT30;58277;47.316;18.908;2023-03-21T15:20:36;17.02;43.95
70708;SHT30;58277;47.316;18.908;2023-03-21T15:23:11;16.77;44.50
70708;SHT30;58277;47.316;18.908;2023-03-21T15:25:36;16.75;44.31
70708;SHT30;58277;47.316;18.908;2023-03-21T15:28:00;16.69;44.55
70708;SHT30;58277;47.316;18.908;2023-03-21T15:30:26;16.81;44.36
70708;SHT30;58277;47.316;18.908;2023-03-21T15:32:49;16.79;44.25
70708;SHT30;58277;47.316;18.908;2023-03-21T15:35:18;16.86;44.27
70708;SHT30;58277;47.316;18.908;2023-03-21T15:37:54;16.84;43.43
70708;SHT30;58277;47.316;18.908;2023-03-21T15:40:21;16.86;43.02
70708;SHT30;58277;47.316;18.908;2023-03-21T15:42:46;16.86;42.70
70708;SHT30;58277;47.316;18.908;2023-03-21T15:45:20;16.72;43.00
70708;SHT30;58277;47.316;18.908;2023-03-21T15:47:58;16.56;43.32
70708;SHT30;58277;47.316;18.908;2023-03-21T15:50:28;16.51;43.76
70708;SHT30;58277;47.316;18.908;2023-03-21T15:52:58;16.46;44.27
70708;SHT30;58277;47.316;18.908;2023-03-21T15:55:26;16.41;44.81
70708;SHT30;58277;47.316;18.908;2023-03-21T15:57:49;16.36;45.00
70708;SHT30;58277;47.316;18.908;2023-03-21T16:02:41;16.00;46.50
70708;SHT30;58277;47.316;18.908;2023-03-21T16:05:24;15.90;46.45
70708;SHT30;58277;47.316;18.908;2023-03-21T16:07:48;15.81;46.88
70708;SHT30;58277;47.316;18.908;2023-03-21T16:10:25;15.81;46.73
70708;SHT30;58277;47.316;18.908;2023-03-21T16:12:49;15.70;46.98
70708;SHT30;58277;47.316;18.908;2023-03-21T16:15:12;15.63;46.97
70708;SHT30;58277;47.316;18.908;2023-03-21T16:17:35;15.63;47.03
70708;SHT30;58277;47.316;18.908;2023-03-21T16:19:59;15.54;47.73
70708;SHT30;58277;47.316;18.908;2023-03-21T16:22:22;15.43;48.34
70708;SHT30;58277;47.316;18.908;2023-03-21T16:24:45;15.35;48.28
70708;SHT30;58277;47.316;18.908;2023-03-21T16:27:10;15.15;48.73
70708;SHT30;58277;47.316;18.908;2023-03-21T16:29:33;15.02;49.06
70708;SHT30;58277;47.316;18.908;2023-03-21T16:31:56;14.84;49.60
70708;SHT30;58277;47.316;18.908;2023-03-21T16:34:18;14.78;49.87
70708;SHT30;58277;47.316;18.908;2023-03-21T16:36:42;14.66;50.38
70708;SHT30;58277;47.316;18.908;2023-03-21T16:39:20;14.47;50.82
70708;SHT30;58277;47.316;18.908;2023-03-21T16:41:43;14.46;51.04
70708;SHT30;58277;47.316;18.908;2023-03-21T16:44:06;14.40;51.32
70708;SHT30;58277;47.316;18.908;2023-03-21T16:46:29;14.15;51.98
70708;SHT30;58277;47.316;18.908;2023-03-21T16:48:55;14.19;51.98
70708;SHT30;58277;47.316;18.908;2023-03-21T16:51:29;14.11;52.55
70708;SHT30;58277;47.316;18.908;2023-03-21T16:53:53;14.02;52.57
70708;SHT30;58277;47.316;18.908;2023-03-21T16:56:48;13.82;53.40
70708;SHT30;58277;47.316;18.908;2023-03-21T16:59:12;13.85;52.95
70708;SHT30;58277;47.316;18.908;2023-03-21T17:01:37;13.77;53.14
70708;SHT30;58277;47.316;18.908;2023-03-21T17:04:02;13.58;53.97
70708;SHT30;58277;47.316;18.908;2023-03-21T17:06:27;13.44;54.22
70708;SHT30;58277;47.316;18.908;2023-03-21T17:08:51;13.39;54.43
70708;SHT30;58277;47.316;18.908;2023-03-21T17:11:16;13.33;54.76
70708;SHT30;58277;47.316;18.908;2023-03-21T17:13:45;13.22;55.25
70708;SHT30;58277;47.316;18.908;2023-03-21T17:16:13;13.19;55.24
70708;SHT30;58277;47.316;18.908;2023-03-21T17:18:36;13.07;55.52
70708;SHT30;58277;47.316;18.908;2023-03-21T17:20:58;13.06;55.48
70708;SHT30;58277;47.316;18.908;2023-03-21T17:23:22;12.95;55.81
70708;SHT30;58277;47.316;18.908;2023-03-21T17:25:45;12.85;56.02